createdAt,value
2018-04-19T00:02:00.085Z,59.40
2018-04-19T00:04:27.611Z,60.90
2018-04-19T00:06:55.177Z,60.30
2018-04-19T00:09:23.448Z,60.10
2018-04-19T00:11:51.724Z,59.50
2018-04-19T00:14:20.033Z,60.10
2018-04-19T00:16:47.529Z,60.00
2018-04-19T00:19:15.048Z,60.00
2018-04-19T00:21:43.353Z,60.80
2018-04-19T00:24:10.905Z,60.70
2018-04-19T00:26:38.430Z,61.10
2018-04-19T00:29:06.721Z,61.60
2018-04-19T00:31:34.232Z,61.60
2018-04-19T00:34:01.790Z,61.90
2018-04-19T00:36:29.318Z,61.20
2018-04-19T00:38:56.813Z,61.50
2018-04-19T00:41:24.363Z,61.40
2018-04-19T00:43:52.654Z,62.80
2018-04-19T00:46:20.175Z,62.10
2018-04-19T00:48:47.705Z,61.40
2018-04-19T00:51:15.267Z,60.90
2018-04-19T00:53:42.773Z,61.10
2018-04-19T00:56:11.052Z,61.40
2018-04-19T00:58:38.594Z,61.40
2018-04-19T01:01:06.114Z,61.50
2018-04-19T01:03:33.638Z,62.00
2018-04-19T01:06:01.194Z,62.00
2018-04-19T01:08:28.713Z,62.50
2018-04-19T01:10:56.237Z,63.30
2018-04-19T01:13:25.274Z,62.50
2018-04-19T01:15:52.809Z,62.40
2018-04-19T01:18:21.098Z,64.00
2018-04-19T01:20:49.399Z,63.10
2018-04-19T01:23:16.909Z,63.00
2018-04-19T01:25:44.419Z,62.40
2018-04-19T01:28:12.711Z,63.10
2018-04-19T01:30:40.232Z,63.10
2018-04-19T01:33:07.757Z,63.50
2018-04-19T01:35:47.348Z,63.20
2018-04-19T01:38:14.858Z,63.10
2018-04-19T01:40:42.363Z,63.60
2018-04-19T01:43:10.062Z,63.70
2018-04-19T01:45:38.328Z,63.80
2018-04-19T01:48:06.594Z,63.90
2018-04-19T01:50:34.896Z,63.70
2018-04-19T01:53:03.192Z,64.00
2018-04-19T01:55:30.731Z,64.00
2018-04-19T01:57:59.032Z,64.40
2018-04-19T02:00:27.312Z,64.50
2018-04-19T02:02:55.590Z,64.80
2018-04-19T02:05:23.881Z,64.80
2018-04-19T02:07:51.405Z,64.70
2018-04-19T02:10:19.701Z,65.60
2018-04-19T02:12:47.291Z,65.20
2018-04-19T02:15:14.800Z,66.20
2018-04-19T02:17:42.305Z,66.20
2018-04-19T02:20:10.607Z,66.30
2018-04-19T02:22:38.108Z,66.20
2018-04-19T02:25:05.620Z,66.10
2018-04-19T02:27:33.920Z,66.00
2018-04-19T02:30:01.482Z,65.90
2018-04-19T02:32:29.002Z,66.10
2018-04-19T02:34:57.301Z,66.70
2018-04-19T02:37:25.611Z,66.20
2018-04-19T02:39:53.175Z,66.40
2018-04-19T02:42:20.707Z,66.30
2018-04-19T02:44:49.073Z,66.80
2018-04-19T02:47:16.597Z,66.70
2018-04-19T02:49:44.125Z,67.10
2018-04-19T02:52:12.402Z,67.10
2018-04-19T02:54:40.680Z,66.80
2018-04-19T02:57:08.979Z,67.40
2018-04-19T02:59:37.254Z,67.50
2018-04-19T03:02:05.521Z,67.80
2018-04-19T03:04:33.061Z,67.60
2018-04-19T03:07:00.565Z,66.70
2018-04-19T03:09:28.846Z,67.10
2018-04-19T03:11:57.149Z,67.30
2018-04-19T03:14:24.661Z,67.20
2018-04-19T03:16:52.168Z,67.80
2018-04-19T03:19:19.728Z,68.70
2018-04-19T03:21:47.255Z,68.20
2018-04-19T03:24:14.775Z,68.30
2018-04-19T03:26:42.300Z,68.90
2018-04-19T03:29:10.573Z,68.80
2018-04-19T03:31:38.082Z,68.50
2018-04-19T03:34:05.646Z,68.10
2018-04-19T03:36:33.149Z,68.40
2018-04-19T03:39:00.766Z,68.00
2018-04-19T03:41:28.882Z,67.50
2018-04-19T03:43:57.197Z,68.20
2018-04-19T03:46:24.770Z,68.00
2018-04-19T03:48:53.069Z,68.40
2018-04-19T03:51:20.609Z,68.30
2018-04-19T03:53:48.184Z,68.90
2018-04-19T03:56:15.673Z,69.10
2018-04-19T03:58:43.181Z,68.70
2018-04-19T04:01:10.744Z,68.40
2018-04-19T04:03:38.265Z,68.50
2018-04-19T04:06:05.769Z,68.90
2018-04-19T04:08:33.282Z,68.00
2018-04-19T04:11:00.821Z,68.90
2018-04-19T04:13:29.114Z,69.20
2018-04-19T04:15:57.453Z,69.70
2018-04-19T04:18:36.729Z,69.70
2018-04-19T04:21:18.041Z,69.20
2018-04-19T04:23:53.429Z,69.10
2018-04-19T04:26:21.710Z,69.10
2018-04-19T04:28:50.048Z,69.50
2018-04-19T04:31:18.565Z,69.40
2018-04-19T04:33:46.089Z,69.40
2018-04-19T04:36:13.601Z,69.20
2018-04-19T04:38:41.125Z,69.40
2018-04-19T04:41:08.647Z,69.40
2018-04-19T04:43:36.920Z,69.50
2018-04-19T04:46:04.510Z,69.40
2018-04-19T04:48:32.863Z,69.90
2018-04-19T04:51:01.905Z,69.80
2018-04-19T04:53:29.465Z,69.80
2018-04-19T04:55:56.972Z,69.20
2018-04-19T04:58:24.483Z,69.00
2018-04-19T05:00:52.874Z,69.20
2018-04-19T05:03:20.381Z,69.20
2018-04-19T05:05:47.951Z,69.50
2018-04-19T05:08:15.453Z,69.40
2018-04-19T05:10:43.726Z,69.80
2018-04-19T05:13:12.009Z,69.80
2018-04-19T05:15:40.349Z,69.80
2018-04-19T05:18:07.883Z,69.80
2018-04-19T05:20:35.397Z,69.40
2018-04-19T05:23:03.704Z,69.40
2018-04-19T05:25:31.983Z,70.00
2018-04-19T05:28:00.262Z,69.60
2018-04-19T05:30:28.566Z,69.30
2018-04-19T05:32:56.060Z,69.20
2018-04-19T05:35:24.242Z,68.60
2018-04-19T05:37:51.925Z,68.40
2018-04-19T05:40:19.444Z,68.10
2018-04-19T05:42:46.990Z,67.00
2018-04-19T05:45:15.286Z,66.30
2018-04-19T05:47:42.961Z,66.20
2018-04-19T05:50:10.777Z,65.40
2018-04-19T05:52:38.319Z,64.40
2018-04-19T05:55:05.846Z,64.10
2018-04-19T05:57:33.365Z,63.50
2018-04-19T06:00:01.685Z,62.00
2018-04-19T06:02:29.968Z,61.50
2018-04-19T06:04:58.244Z,60.80
2018-04-19T06:07:26.545Z,60.20
2018-04-19T06:09:54.056Z,60.10
2018-04-19T06:12:21.586Z,58.70
2018-04-19T06:14:49.112Z,59.50
2018-04-19T06:17:17.385Z,58.60
2018-04-19T06:19:45.661Z,57.60
2018-04-19T06:22:13.962Z,56.30
2018-04-19T06:24:42.261Z,56.90
2018-04-19T06:27:09.768Z,56.30
2018-04-19T06:29:37.293Z,55.50
2018-04-19T06:32:04.812Z,55.10
2018-04-19T06:34:33.840Z,53.80
2018-04-19T06:37:01.393Z,53.80
2018-04-19T06:39:29.674Z,52.90
2018-04-19T06:41:57.954Z,52.40
2018-04-19T06:44:26.261Z,51.70
2018-04-19T06:46:53.767Z,51.60
2018-04-19T06:49:21.276Z,51.30
2018-04-19T06:51:48.921Z,50.60
2018-04-19T06:54:17.205Z,50.00
2018-04-19T06:56:45.473Z,50.20
2018-04-19T06:59:13.799Z,48.60
2018-04-19T07:01:41.325Z,49.00
2018-04-19T07:04:09.598Z,49.50
2018-04-19T07:06:38.661Z,47.70
2018-04-19T07:09:06.179Z,47.70
2018-04-19T07:11:34.465Z,46.90
2018-04-19T07:14:02.780Z,46.40
2018-04-19T07:16:30.296Z,46.30
2018-04-19T07:18:57.816Z,44.50
2018-04-19T07:21:25.355Z,44.00
2018-04-19T07:23:52.906Z,42.30
2018-04-19T07:26:21.185Z,41.10
2018-04-19T07:28:48.757Z,40.40
2018-04-19T07:31:17.047Z,37.90
2018-04-19T07:33:44.554Z,37.80
2018-04-19T07:36:12.121Z,36.30
2018-04-19T07:38:39.834Z,36.10
2018-04-19T07:41:08.162Z,34.90
2018-04-19T07:43:35.700Z,34.80
2018-04-19T07:46:03.250Z,33.90
2018-04-19T07:48:31.505Z,32.20
2018-04-19T07:50:59.031Z,32.10
2018-04-19T07:53:26.621Z,29.20
2018-04-19T07:55:54.897Z,28.50
2018-04-19T07:58:22.427Z,28.50
2018-04-19T08:00:49.949Z,27.90
2018-04-19T08:03:18.225Z,26.10
2018-04-19T08:05:46.556Z,27.50
2018-04-19T08:08:14.066Z,27.40
2018-04-19T08:10:41.586Z,26.40
2018-04-19T08:13:09.169Z,26.20
2018-04-19T08:15:36.807Z,25.00
2018-04-19T08:18:04.358Z,25.80
2018-04-19T08:20:31.889Z,25.60
2018-04-19T08:22:59.406Z,24.20
2018-04-19T08:25:26.922Z,23.20
2018-04-19T08:27:55.219Z,23.60
2018-04-19T08:30:23.492Z,24.60
2018-04-19T08:32:51.771Z,24.00
2018-04-19T08:35:20.072Z,23.40
2018-04-19T08:37:47.588Z,23.30
2018-04-19T08:40:15.093Z,23.00
2018-04-19T08:42:42.781Z,24.20
2018-04-19T08:45:10.289Z,24.40
2018-04-19T08:47:37.820Z,24.90
2018-04-19T08:50:05.353Z,24.40
2018-04-19T08:52:33.624Z,25.30
2018-04-19T08:55:01.980Z,24.20
2018-04-19T08:57:29.550Z,24.10
2018-04-19T08:59:57.098Z,23.50
2018-04-19T09:02:24.613Z,25.50
2018-04-19T09:04:52.137Z,27.10
2018-04-19T09:07:19.769Z,26.70
2018-04-19T09:09:47.291Z,24.80
2018-04-19T09:12:15.581Z,25.80
2018-04-19T09:14:43.867Z,26.00
2018-04-19T09:17:11.401Z,26.00
2018-04-19T09:19:39.716Z,26.10
2018-04-19T09:22:07.235Z,26.00
2018-04-19T09:24:34.756Z,26.10
2018-04-19T09:27:02.313Z,26.00
2018-04-19T09:29:29.821Z,24.70
2018-04-19T09:31:57.334Z,26.10
2018-04-19T09:34:25.637Z,24.70
2018-04-19T09:36:53.144Z,24.60
2018-04-19T09:39:21.480Z,24.80
2018-04-19T09:41:49.005Z,24.60
2018-04-19T09:44:16.505Z,23.20
2018-04-19T09:46:44.021Z,22.70
2018-04-19T09:49:11.594Z,23.00
2018-04-19T09:51:39.868Z,24.40
2018-04-19T09:54:09.061Z,22.70
2018-04-19T09:56:36.526Z,22.70
2018-04-19T09:59:11.458Z,22.50
2018-04-19T10:01:44.785Z,22.40
2018-04-19T10:04:14.028Z,24.00
2018-04-19T10:06:41.568Z,23.90
2018-04-19T10:09:09.114Z,23.40
2018-04-19T10:11:36.653Z,23.60
2018-04-19T10:14:04.177Z,22.80
2018-04-19T10:16:31.706Z,22.80
2018-04-19T10:18:59.976Z,20.60
2018-04-19T10:21:28.283Z,20.50
2018-04-19T10:23:56.583Z,20.30
2018-04-19T10:26:24.092Z,20.30
2018-04-19T10:28:52.369Z,19.70
2018-04-19T10:31:20.693Z,19.90
2018-04-19T10:33:48.292Z,19.80
2018-04-19T10:36:15.773Z,19.50
2018-04-19T10:38:43.329Z,19.40
2018-04-19T10:41:11.668Z,19.10
2018-04-19T10:43:39.178Z,19.00
2018-04-19T10:46:06.717Z,19.20
2018-04-19T10:48:34.223Z,19.10
2018-04-19T10:51:02.502Z,17.90
2018-04-19T10:53:30.793Z,16.90
2018-04-19T10:55:59.070Z,16.20
2018-04-19T10:58:27.443Z,17.40
2018-04-19T11:00:55.801Z,17.30
2018-04-19T11:03:23.309Z,17.40
2018-04-19T11:05:51.572Z,17.50
2018-04-19T11:08:19.110Z,17.40
2018-04-19T11:10:46.625Z,17.50
2018-04-19T11:13:14.901Z,16.90
2018-04-19T11:15:43.189Z,16.50
2018-04-19T11:18:11.464Z,15.90
2018-04-19T11:20:39.734Z,16.30
2018-04-19T11:23:08.031Z,16.60
2018-04-19T11:25:36.310Z,15.60
2018-04-19T11:28:04.638Z,17.00
2018-04-19T11:30:32.157Z,16.90
2018-04-19T11:33:00.421Z,16.40
2018-04-19T11:35:28.704Z,15.70
2018-04-19T11:37:56.224Z,15.60
2018-04-19T11:40:23.738Z,15.30
2018-04-19T11:42:52.005Z,15.50
2018-04-19T11:45:21.054Z,15.70
2018-04-19T11:47:48.610Z,15.70
2018-04-19T11:50:16.144Z,17.00
2018-04-19T11:52:43.742Z,16.90
2018-04-19T11:55:11.252Z,16.80
2018-04-19T11:57:38.978Z,18.40
2018-04-19T12:00:06.747Z,16.90
2018-04-19T12:02:34.300Z,17.90
2018-04-19T12:05:01.805Z,17.60
2018-04-19T12:07:29.335Z,17.80
2018-04-19T12:09:56.845Z,17.70
2018-04-19T12:12:24.350Z,18.50
2018-04-19T12:14:52.663Z,19.30
2018-04-19T12:17:20.182Z,19.30
2018-04-19T12:19:48.463Z,17.90
2018-04-19T12:22:16.765Z,18.60
2018-04-19T12:24:44.856Z,18.40
2018-04-19T12:27:12.542Z,18.90
2018-04-19T12:29:40.102Z,19.10
2018-04-19T12:32:07.613Z,18.60
2018-04-19T12:34:35.302Z,19.70
2018-04-19T12:37:02.972Z,19.30
2018-04-19T12:39:30.506Z,18.50
2018-04-19T12:41:58.801Z,20.20
2018-04-19T12:44:27.209Z,19.40
2018-04-19T12:46:54.718Z,19.30
2018-04-19T12:49:22.361Z,20.40
2018-04-19T12:51:49.891Z,19.70
2018-04-19T12:54:18.210Z,16.80
2018-04-19T12:56:45.827Z,16.80
2018-04-19T12:59:14.136Z,17.10
2018-04-19T13:01:41.849Z,17.00
2018-04-19T13:04:09.363Z,16.50
2018-04-19T13:06:36.946Z,16.10
2018-04-19T13:09:04.474Z,16.60
2018-04-19T13:11:32.819Z,16.00
2018-04-19T13:14:00.317Z,16.00
2018-04-19T13:16:27.859Z,15.90
2018-04-19T13:18:56.224Z,17.30
2018-04-19T13:21:23.749Z,17.30
2018-04-19T13:23:52.028Z,17.70
2018-04-19T13:26:19.549Z,17.70
2018-04-19T13:28:47.081Z,18.80
2018-04-19T13:31:14.590Z,19.10
2018-04-19T13:33:42.204Z,19.90
2018-04-19T13:36:09.758Z,19.90
2018-04-19T13:38:37.261Z,21.10
2018-04-19T13:41:04.774Z,20.60
2018-04-19T13:43:32.311Z,21.80
2018-04-19T13:46:00.586Z,21.90
2018-04-19T13:48:28.098Z,22.30
2018-04-19T13:50:55.637Z,21.60
2018-04-19T13:53:23.950Z,23.00
2018-04-19T13:55:51.512Z,22.90
2018-04-19T13:58:19.037Z,22.20
2018-04-19T14:00:46.552Z,23.00
2018-04-19T14:03:14.205Z,24.00
2018-04-19T14:05:41.746Z,23.90
2018-04-19T14:08:10.036Z,23.80
2018-04-19T14:10:37.562Z,23.80
2018-04-19T14:13:05.090Z,23.90
2018-04-19T14:15:32.591Z,23.70
2018-04-19T14:18:01.618Z,23.60
2018-04-19T14:20:29.910Z,24.10
2018-04-19T14:22:57.416Z,24.10
2018-04-19T14:25:24.923Z,24.90
2018-04-19T14:27:53.236Z,24.80
2018-04-19T14:30:20.748Z,24.80
2018-04-19T14:32:49.033Z,26.80
2018-04-19T14:35:17.336Z,25.40
2018-04-19T14:37:44.865Z,25.00
2018-04-19T14:40:12.391Z,25.90
2018-04-19T14:42:40.679Z,25.80
2018-04-19T14:45:08.229Z,25.70
2018-04-19T14:47:35.737Z,25.90
2018-04-19T14:50:03.266Z,25.70
2018-04-19T14:52:30.775Z,26.60
2018-04-19T14:54:59.069Z,25.80
2018-04-19T14:57:27.365Z,26.40
2018-04-19T14:59:55.687Z,26.30
2018-04-19T15:02:23.209Z,26.30
2018-04-19T15:04:51.725Z,26.20
2018-04-19T15:07:19.251Z,26.20
2018-04-19T15:09:47.531Z,26.80
2018-04-19T15:12:15.846Z,27.50
2018-04-19T15:14:43.357Z,27.40
2018-04-19T15:17:12.370Z,27.10
2018-04-19T15:19:40.672Z,26.40
2018-04-19T15:22:08.953Z,27.00
2018-04-19T15:24:36.458Z,27.00
2018-04-19T15:27:03.996Z,26.70
2018-04-19T15:29:31.498Z,26.60
2018-04-19T15:31:59.003Z,27.20
2018-04-19T15:34:27.313Z,27.80
2018-04-19T15:36:54.821Z,27.70
2018-04-19T15:39:23.117Z,28.80
2018-04-19T15:41:51.409Z,27.50
2018-04-19T15:44:19.681Z,28.60
2018-04-19T15:46:47.990Z,27.60
2018-04-19T15:49:15.544Z,27.50
2018-04-19T15:51:43.072Z,27.60
2018-04-19T15:54:12.118Z,28.50
2018-04-19T15:56:39.702Z,28.50
2018-04-19T15:59:07.218Z,27.90
2018-04-19T16:01:35.490Z,28.50
2018-04-19T16:04:04.021Z,28.60
2018-04-19T16:06:32.679Z,28.20
2018-04-19T16:09:00.759Z,28.50
2018-04-19T16:11:28.317Z,28.30
2018-04-19T16:13:56.598Z,29.10
2018-04-19T16:16:24.874Z,28.50
2018-04-19T16:18:53.184Z,28.80
2018-04-19T16:21:20.705Z,28.80
2018-04-19T16:23:48.238Z,29.00
2018-04-19T16:26:15.767Z,28.90
2018-04-19T16:28:48.625Z,29.80
2018-04-19T16:31:11.595Z,29.80
2018-04-19T16:33:39.898Z,29.70
2018-04-19T16:36:07.417Z,29.60
2018-04-19T16:38:35.009Z,29.50
2018-04-19T16:41:02.641Z,29.40
2018-04-19T16:43:30.119Z,30.40
2018-04-19T16:45:58.394Z,30.00
2018-04-19T16:48:26.693Z,31.50
2018-04-19T16:50:54.970Z,31.70
2018-04-19T16:53:22.524Z,31.50
2018-04-19T16:55:50.824Z,32.10
2018-04-19T16:58:19.093Z,32.50
2018-04-19T17:00:46.597Z,32.20
2018-04-19T17:03:14.139Z,32.40
2018-04-19T17:05:42.453Z,32.80
2018-04-19T17:08:10.086Z,32.70
2018-04-19T17:10:38.377Z,33.40
2018-04-19T17:13:06.776Z,34.00
2018-04-19T17:15:34.324Z,34.60
2018-04-19T17:18:02.614Z,33.60
2018-04-19T17:20:31.025Z,32.50
2018-04-19T17:22:58.541Z,32.50
2018-04-19T17:25:26.864Z,32.70
2018-04-19T17:27:54.389Z,32.70
2018-04-19T17:30:22.665Z,33.10
2018-04-19T17:32:50.207Z,33.10
2018-04-19T17:35:17.723Z,33.20
2018-04-19T17:37:45.260Z,32.90
2018-04-19T17:40:13.557Z,33.70
2018-04-19T17:42:41.829Z,33.70
2018-04-19T17:45:10.107Z,34.00
2018-04-19T17:47:38.411Z,34.20
2018-04-19T17:50:05.957Z,34.20
2018-04-19T17:52:34.237Z,34.80
2018-04-19T17:55:03.360Z,35.00
2018-04-19T17:57:30.869Z,35.00
2018-04-19T17:59:58.393Z,35.20
2018-04-19T18:02:25.931Z,35.50
2018-04-19T18:04:54.234Z,36.10
2018-04-19T18:07:22.528Z,36.00
2018-04-19T18:09:50.317Z,35.90
2018-04-19T18:12:18.677Z,36.80
2018-04-19T18:14:46.185Z,36.70
2018-04-19T18:17:13.722Z,36.70
2018-04-19T18:19:41.261Z,37.40
2018-04-19T18:22:08.786Z,37.60
2018-04-19T18:24:37.112Z,38.20
2018-04-19T18:27:04.650Z,38.10
2018-04-19T18:29:32.157Z,38.40
2018-04-19T18:31:59.748Z,38.40
2018-04-19T18:34:27.551Z,38.80
2018-04-19T18:36:55.861Z,39.10
2018-04-19T18:39:23.412Z,39.00
2018-04-19T18:41:50.934Z,40.50
2018-04-19T18:44:18.458Z,41.00
2018-04-19T18:46:45.992Z,40.90
2018-04-19T18:49:13.569Z,41.20
2018-04-19T18:51:41.111Z,42.10
2018-04-19T18:54:09.408Z,41.40
2018-04-19T18:56:36.937Z,41.30
2018-04-19T18:59:05.238Z,42.60
2018-04-19T19:01:33.616Z,42.20
2018-04-19T19:04:02.043Z,41.90
2018-04-19T19:06:29.599Z,41.90
2018-04-19T19:08:57.178Z,42.00
2018-04-19T19:11:24.857Z,41.50
2018-04-19T19:13:52.444Z,41.90
2018-04-19T19:16:20.064Z,41.80
2018-04-19T19:18:59.438Z,41.80
2018-04-19T19:21:27.780Z,42.50
2018-04-19T19:23:55.322Z,42.50
2018-04-19T19:26:22.941Z,42.70
2018-04-19T19:28:50.546Z,42.60
2018-04-19T19:31:18.887Z,44.40
2018-04-19T19:33:46.491Z,44.30
2018-04-19T19:36:14.805Z,45.10
2018-04-19T19:38:42.398Z,45.00
2018-04-19T19:41:10.707Z,45.80
2018-04-19T19:43:39.017Z,44.90
2018-04-19T19:46:06.524Z,45.00
2018-04-19T19:48:34.049Z,45.10
2018-04-19T19:51:01.588Z,45.30
2018-04-19T19:53:29.883Z,44.90
2018-04-19T19:55:58.170Z,45.70
2018-04-19T19:58:26.504Z,47.50
2018-04-19T20:00:54.073Z,47.40
2018-04-19T20:03:21.593Z,47.40
2018-04-19T20:05:49.202Z,47.80
2018-04-19T20:08:16.715Z,47.90
2018-04-19T20:10:44.248Z,47.80
2018-04-19T20:13:12.963Z,49.60
2018-04-19T20:15:40.574Z,49.50
2018-04-19T20:18:08.187Z,48.70
2018-04-19T20:20:36.860Z,49.20
2018-04-19T20:23:05.505Z,49.20
2018-04-19T20:25:33.201Z,49.20
2018-04-19T20:28:01.805Z,50.20
2018-04-19T20:30:30.279Z,52.10
2018-04-19T20:32:58.589Z,52.30
2018-04-19T20:35:26.905Z,51.10
2018-04-19T20:37:54.417Z,51.10
2018-04-19T20:40:23.446Z,51.30
2018-04-19T20:42:51.793Z,51.40
2018-04-19T20:45:19.312Z,51.40
2018-04-19T20:47:46.938Z,51.80
2018-04-19T20:50:15.303Z,52.40
2018-04-19T20:52:42.855Z,52.30
2018-04-19T20:55:10.356Z,52.10
2018-04-19T20:57:37.913Z,52.50
2018-04-19T21:00:05.425Z,52.50
2018-04-19T21:02:32.933Z,53.20
2018-04-19T21:05:01.989Z,53.60
2018-04-19T21:07:29.515Z,53.50
2018-04-19T21:09:58.033Z,53.50
2018-04-19T21:12:25.573Z,53.50
2018-04-19T21:14:54.039Z,53.50
2018-04-19T21:17:21.550Z,53.50
2018-04-19T21:19:49.073Z,54.20
2018-04-19T21:22:17.499Z,54.80
2018-04-19T21:24:45.025Z,54.70
2018-04-19T21:27:13.322Z,54.30
2018-04-19T21:29:40.842Z,54.20
2018-04-19T21:32:08.362Z,54.00
2018-04-19T21:34:35.897Z,54.30
2018-04-19T21:37:04.236Z,54.80
2018-04-19T21:39:31.745Z,54.70
2018-04-19T21:42:00.212Z,55.10
2018-04-19T21:44:27.723Z,55.10
2018-04-19T21:46:55.245Z,55.70
2018-04-19T21:49:22.797Z,55.70
2018-04-19T21:51:51.119Z,56.10
2018-04-19T21:54:18.637Z,56.10
2018-04-19T21:56:46.183Z,56.80
2018-04-19T21:59:13.702Z,56.60
2018-04-19T22:01:41.983Z,57.20
2018-04-19T22:04:10.287Z,56.90
2018-04-19T22:06:37.803Z,56.80
2018-04-19T22:09:06.085Z,57.40
2018-04-19T22:11:33.626Z,57.30
2018-04-19T22:14:01.130Z,58.10
2018-04-19T22:16:29.500Z,58.30
2018-04-19T22:18:57.041Z,58.20
2018-04-19T22:21:24.550Z,57.60
2018-04-19T22:23:52.837Z,58.00
2018-04-19T22:26:21.139Z,57.80
2018-04-19T22:28:48.699Z,57.80
2018-04-19T22:31:16.224Z,59.30
2018-04-19T22:33:44.513Z,59.00
2018-04-19T22:36:12.806Z,59.30
2018-04-19T22:38:41.084Z,58.80
2018-04-19T22:41:09.365Z,58.70
2018-04-19T22:43:37.645Z,59.20
2018-04-19T22:46:05.942Z,59.30
2018-04-19T22:48:33.483Z,58.70
2018-04-19T22:51:01.024Z,58.70
2018-04-19T22:53:28.538Z,58.30
2018-04-19T22:55:56.077Z,58.60
2018-04-19T22:58:24.358Z,59.40
2018-04-19T23:00:52.746Z,60.50
2018-04-19T23:03:20.297Z,60.40
2018-04-19T23:05:47.812Z,60.00
2018-04-19T23:08:15.318Z,60.40
2018-04-19T23:10:43.621Z,61.00
2018-04-19T23:13:11.893Z,60.90
2018-04-19T23:15:39.414Z,60.80
2018-04-19T23:18:07.017Z,60.80
2018-04-19T23:20:34.546Z,61.60
2018-04-19T23:23:02.057Z,61.30
2018-04-19T23:25:30.349Z,62.10
2018-04-19T23:27:58.688Z,61.40
2018-04-19T23:30:26.201Z,61.40
2018-04-19T23:32:53.763Z,61.80
2018-04-19T23:35:21.290Z,62.30
2018-04-19T23:37:48.812Z,62.10
2018-04-19T23:40:16.356Z,61.90
2018-04-19T23:42:43.874Z,61.90
2018-04-19T23:45:11.381Z,61.80
2018-04-19T23:47:38.936Z,62.20
2018-04-19T23:50:07.217Z,62.00
2018-04-19T23:52:35.501Z,61.90
2018-04-19T23:55:03.801Z,62.50
2018-04-19T23:57:31.309Z,62.40
2018-04-19T23:59:58.823Z,62.90
